Time;durP1;ratioP1;P1;durP2;ratioP2;P2;SDS_P1;SDS_P2;PMS_P1;PMS_P2;Temp;Humidity;BMP_temperature;BMP_pressure;BME280_temperature;BME280_humidity;BME280_pressure;Samples;Min_cycle;Max_cycle;Signal;HPM_P1;HPM_P2
2022/06/27 00:00:36;;;;;;;0.07;0.07;;;;;;;19.48;97.21;100154.13;5072013;28;20262;-72
2022/06/27 00:03:01;;;;;;;0.10;0.10;;;;;;;19.45;97.76;100141.03;5053921;28;20653;-72
2022/06/27 00:05:27;;;;;;;0.23;0.23;;;;;;;19.46;97.59;100137.88;5071956;28;20183;-72
2022/06/27 00:07:52;;;;;;;0.30;0.20;;;;;;;19.42;95.73;100131.50;5071059;28;20221;-71
2022/06/27 00:10:17;;;;;;;0.13;0.13;;;;;;;19.35;93.87;100148.03;5071074;28;20186;-72
2022/06/27 00:12:43;;;;;;;0.37;0.37;;;;;;;19.30;93.32;100159.47;5071786;28;20183;-72
2022/06/27 00:15:09;;;;;;;0.43;0.43;;;;;;;19.23;93.20;100159.38;5071663;28;20197;-72
2022/06/27 00:17:35;;;;;;;0.00;0.00;;;;;;;19.21;93.30;100156.97;5071173;28;20175;-72
2022/06/27 00:20:00;;;;;;;0.00;0.00;;;;;;;19.21;93.90;100154.22;5071687;28;20175;-72
2022/06/27 00:22:27;;;;;;;0.00;0.00;;;;;;;19.23;94.07;100162.13;5071612;28;20648;-72
2022/06/27 00:24:52;;;;;;;0.20;0.20;;;;;;;19.27;94.29;100161.03;5071550;28;20172;-73
2022/06/27 00:27:18;;;;;;;0.00;0.00;;;;;;;19.29;94.47;100177.25;5071174;28;20567;-72
2022/06/27 00:29:43;;;;;;;0.30;0.27;;;;;;;19.23;95.25;100173.22;5071515;28;20209;-72
2022/06/27 00:32:09;;;;;;;0.10;0.10;;;;;;;19.17;97.13;100181.06;5071597;28;20569;-72
2022/06/27 00:34:35;;;;;;;0.07;0.07;;;;;;;19.18;98.48;100177.13;5071307;28;20696;-72
2022/06/27 00:37:01;;;;;;;0.30;0.30;;;;;;;19.23;98.42;100184.28;5071141;28;20595;-72
2022/06/27 00:39:26;;;;;;;0.57;0.57;;;;;;;19.21;98.38;100192.19;5071417;28;20189;-72
2022/06/27 00:41:52;;;;;;;0.63;0.63;;;;;;;19.20;98.77;100193.34;5071168;28;20175;-72
2022/06/27 00:44:38;;;;;;;0.43;0.43;;;;;;;19.21;99.17;100183.88;5071454;28;20257;-73
2022/06/27 00:47:05;;;;;;;0.07;0.07;;;;;;;19.24;99.48;100183.94;5070700;28;20264;-73
2022/06/27 00:49:31;;;;;;;0.30;0.30;;;;;;;19.27;99.51;100191.50;5070834;28;20171;-72
2022/06/27 00:51:56;;;;;;;0.17;0.17;;;;;;;19.29;99.39;100191.13;5070886;28;20200;-72
2022/06/27 00:54:23;;;;;;;0.00;0.00;;;;;;;19.31;99.26;100197.88;5071070;28;20225;-72
2022/06/27 00:56:50;;;;;;;0.00;0.00;;;;;;;19.36;98.94;100193.97;5070831;28;20176;-72
2022/06/27 00:59:15;;;;;;;0.00;0.00;;;;;;;19.43;98.77;100182.97;5070735;28;20639;-72
2022/06/27 01:01:41;;;;;;;3.50;0.40;;;;;;;19.53;98.39;100187.06;5070774;28;20233;-72
2022/06/27 01:04:07;;;;;;;0.43;0.43;;;;;;;19.60;97.46;100182.41;5071120;28;20530;-73
2022/06/27 01:06:33;;;;;;;0.57;0.57;;;;;;;19.65;96.88;100183.25;5070897;28;20208;-72
2022/06/27 01:08:58;;;;;;;0.20;0.20;;;;;;;19.64;96.36;100184.44;5070703;28;20690;-72
2022/06/27 01:11:24;;;;;;;0.00;0.00;;;;;;;19.61;95.94;100184.00;5070285;28;20261;-72
2022/06/27 01:13:49;;;;;;;0.40;0.40;;;;;;;19.63;95.60;100180.06;5070783;28;20170;-73
2022/06/27 01:16:15;;;;;;;0.90;0.90;;;;;;;19.53;94.94;100192.59;5070831;28;20258;-73
2022/06/27 01:18:41;;;;;;;0.20;0.20;;;;;;;19.46;94.33;100198.84;5069828;28;20211;-73
2022/06/27 01:21:07;;;;;;;0.10;0.10;;;;;;;19.44;93.91;100197.63;5070397;28;20262;-72
2022/06/27 01:23:36;;;;;;;0.00;0.00;;;;;;;19.37;93.37;100201.09;5070840;28;20572;-71
2022/06/27 01:26:03;;;;;;;0.10;0.10;;;;;;;19.33;93.90;100197.50;5070587;28;20185;-72
2022/06/27 01:28:29;;;;;;;0.30;0.23;;;;;;;19.25;93.81;100206.91;5070184;28;20242;-72
2022/06/27 01:30:54;;;;;;;0.00;0.00;;;;;;;19.20;94.17;100204.44;5070959;28;20174;-72
2022/06/27 01:33:20;;;;;;;0.27;0.27;;;;;;;19.17;94.64;100208.75;5070720;28;20221;-72
2022/06/27 01:35:46;;;;;;;0.40;0.40;;;;;;;19.10;94.19;100199.56;5070818;28;20205;-72
2022/06/27 01:38:11;;;;;;;9.37;0.70;;;;;;;19.00;95.15;100209.31;5052138;28;20227;-73
2022/06/27 01:40:37;;;;;;;0.70;0.53;;;;;;;18.88;95.67;100210.34;5052636;28;20227;-73
2022/06/27 01:43:04;;;;;;;0.30;0.30;;;;;;;18.82;96.60;100227.66;5070873;28;20742;-73
2022/06/27 01:45:30;;;;;;;1.57;1.47;;;;;;;18.76;97.10;100220.81;5070518;28;20201;-73
2022/06/27 01:47:55;;;;;;;0.20;0.20;;;;;;;18.66;98.11;100230.53;5070153;28;20681;-74
2022/06/27 01:50:24;;;;;;;0.13;0.13;;;;;;;18.60;99.41;100232.81;5070853;28;20592;-73
2022/06/27 01:52:51;;;;;;;0.10;0.10;;;;;;;18.58;100.00;100231.56;5071208;28;20529;-73
2022/06/27 01:55:17;;;;;;;0.23;0.23;;;;;;;18.52;100.00;100222.00;5070426;28;20173;-73
2022/06/27 01:57:45;;;;;;;1.63;1.53;;;;;;;18.46;100.00;100224.25;5070009;28;20638;-75
2022/06/27 02:00:12;;;;;;;0.50;0.50;;;;;;;18.39;100.00;100230.50;5070594;28;20163;-72
2022/06/27 02:02:37;;;;;;;1.40;1.20;;;;;;;18.35;100.00;100237.09;5070331;28;20166;-73
2022/06/27 02:05:03;;;;;;;1.10;1.10;;;;;;;18.26;100.00;100244.88;5070278;28;20193;-72
2022/06/27 02:07:28;;;;;;;0.40;0.40;;;;;;;18.17;100.00;100239.56;5070032;28;20281;-72
2022/06/27 02:09:54;;;;;;;0.70;0.70;;;;;;;18.17;100.00;100228.50;5069185;28;20836;-72
2022/06/27 02:12:19;;;;;;;0.77;0.77;;;;;;;18.16;100.00;100231.66;5070507;28;20589;-71
2022/06/27 02:14:49;;;;;;;0.83;0.83;;;;;;;18.12;100.00;100248.19;5070218;28;20194;-72
2022/06/27 02:17:15;;;;;;;1.07;1.07;;;;;;;18.07;100.00;100248.47;5069945;28;20202;-72
2022/06/27 02:19:40;;;;;;;2.03;1.93;;;;;;;18.03;100.00;100247.59;5069762;28;20720;-72
2022/06/27 02:22:06;;;;;;;2.30;2.20;;;;;;;18.02;100.00;100240.47;5070130;28;20202;-73
2022/06/27 02:24:32;;;;;;;2.20;2.10;;;;;;;18.01;100.00;100239.69;5070119;28;20171;-72
2022/06/27 02:26:57;;;;;;;1.40;1.37;;;;;;;17.99;100.00;100244.78;5069837;28;20611;-72
2022/06/27 02:29:22;;;;;;;1.30;1.20;;;;;;;17.98;100.00;100242.38;5069911;28;20214;-71
2022/06/27 02:31:49;;;;;;;0.10;0.10;;;;;;;17.99;100.00;100232.91;5072734;28;20273;-72
2022/06/27 02:34:16;;;;;;;2.07;1.97;;;;;;;18.01;100.00;100233.34;5073619;28;20533;-72
2022/06/27 02:36:42;;;;;;;2.07;0.93;;;;;;;18.02;100.00;100234.94;5073423;28;20669;-72
2022/06/27 02:39:11;;;;;;;6.47;3.70;;;;;;;18.01;100.00;100247.16;5073417;28;20166;-72
2022/06/27 02:41:39;;;;;;;0.67;0.67;;;;;;;18.00;100.00;100253.88;5073574;28;20299;-71
2022/06/27 02:44:12;;;;;;;2.93;2.67;;;;;;;17.96;100.00;100256.56;5066278;28;20575;-72
2022/06/27 02:46:39;;;;;;;1.03;1.03;;;;;;;17.96;100.00;100253.81;5068305;28;20201;-73
2022/06/27 02:49:05;;;;;;;1.23;1.03;;;;;;;17.96;100.00;100270.41;5088745;28;20183;-72
2022/06/27 02:51:55;;;;;;;1.10;1.07;;;;;;;17.97;100.00;100258.16;5073305;28;20178;-72
2022/06/27 02:54:30;;;;;;;0.53;0.53;;;;;;;18.00;100.00;100251.09;5072413;28;20183;-72
2022/06/27 02:57:18;;;;;;;0.63;0.63;;;;;;;18.00;100.00;100259.41;5073312;28;20197;-72
2022/06/27 02:59:45;;;;;;;3.40;1.30;;;;;;;18.02;100.00;100252.34;5073090;28;20189;-72
2022/06/27 03:02:13;;;;;;;0.57;0.57;;;;;;;18.05;100.00;100237.78;5055338;28;20559;-72
2022/06/27 03:04:39;;;;;;;0.63;0.63;;;;;;;18.07;100.00;100237.41;5073083;28;20174;-72
2022/06/27 03:07:05;;;;;;;0.43;0.43;;;;;;;18.11;100.00;100238.28;5072917;28;20198;-72
2022/06/27 03:09:30;;;;;;;1.17;1.17;;;;;;;18.16;100.00;100237.19;5072020;28;20181;-72
2022/06/27 03:11:55;;;;;;;1.40;1.30;;;;;;;18.17;100.00;100222.19;5072935;28;20177;-72
2022/06/27 03:14:21;;;;;;;1.87;1.77;;;;;;;18.16;100.00;100226.13;5072914;28;20171;-72
2022/06/27 03:16:46;;;;;;;0.23;0.23;;;;;;;18.13;100.00;100220.16;5072647;28;20178;-71
2022/06/27 03:19:12;;;;;;;0.10;0.10;;;;;;;18.11;100.00;100222.50;5072698;28;20167;-72
2022/06/27 03:21:37;;;;;;;0.77;0.77;;;;;;;18.17;100.00;100222.19;5072922;28;20194;-72
2022/06/27 03:24:03;;;;;;;0.00;0.00;;;;;;;18.22;100.00;100217.13;5072823;28;20178;-72
2022/06/27 03:26:28;;;;;;;0.00;0.00;;;;;;;18.29;100.00;100222.00;5072696;28;20171;-72
2022/06/27 03:28:54;;;;;;;0.00;0.00;;;;;;;18.32;100.00;100216.53;5072658;28;20174;-72
2022/06/27 03:31:19;;;;;;;0.00;0.00;;;;;;;18.43;100.00;100220.28;5072752;28;20630;-71
2022/06/27 03:33:45;;;;;;;0.00;0.00;;;;;;;18.36;100.00;100214.59;5072606;28;20170;-72
2022/06/27 03:36:11;;;;;;;0.00;0.00;;;;;;;18.32;100.00;100215.72;5072599;28;20249;-72
2022/06/27 03:38:37;;;;;;;0.00;0.00;;;;;;;18.54;100.00;100212.16;5072084;28;20219;-72
2022/06/27 03:41:02;;;;;;;0.00;0.00;;;;;;;18.37;100.00;100198.81;5072500;28;20255;-71
2022/06/27 03:43:28;;;;;;;0.13;0.13;;;;;;;18.43;100.00;100203.69;5071592;28;20183;-73
2022/06/27 03:45:55;;;;;;;0.00;0.00;;;;;;;18.61;100.00;100208.69;5072389;28;20232;-72
2022/06/27 03:51:05;;;;;;;0.00;0.00;;;;;;;18.71;100.00;100210.88;5072350;28;20193;-72
2022/06/27 03:53:31;;;;;;;1.13;1.13;;;;;;;18.86;100.00;100204.38;5072190;28;20202;-72
2022/06/27 03:55:56;;;;;;;0.27;0.27;;;;;;;18.86;100.00;100209.91;5072147;28;20614;-72
2022/06/27 03:58:22;;;;;;;0.60;0.60;;;;;;;18.77;100.00;100220.44;5071654;28;20640;-71
2022/06/27 04:00:47;;;;;;;0.77;0.77;;;;;;;18.72;100.00;100227.09;5072096;28;20198;-71
2022/06/27 04:03:12;;;;;;;3.60;1.47;;;;;;;18.57;100.00;100230.78;5071991;28;20677;-71
2022/06/27 04:05:38;;;;;;;1.33;1.33;;;;;;;18.48;100.00;100226.66;5071979;28;20257;-72
2022/06/27 04:08:04;;;;;;;1.07;1.07;;;;;;;18.41;100.00;100219.84;5071706;28;20431;-72
2022/06/27 04:10:29;;;;;;;0.00;0.00;;;;;;;18.39;100.00;100205.59;5071105;28;20311;-72
2022/06/27 04:12:55;;;;;;;1.40;0.73;;;;;;;18.44;100.00;100199.75;5071845;28;20175;-72
2022/06/27 04:15:20;;;;;;;0.00;0.00;;;;;;;18.43;100.00;100189.84;5071865;28;20907;-72
2022/06/27 04:17:45;;;;;;;0.00;0.00;;;;;;;18.46;100.00;100191.06;5071254;28;20182;-72
2022/06/27 04:20:11;;;;;;;0.27;0.27;;;;;;;18.49;100.00;100186.75;5071727;28;20206;-72
2022/06/27 04:22:37;;;;;;;1.30;1.30;;;;;;;18.45;100.00;100195.00;5071687;28;20544;-73
2022/06/27 04:25:02;;;;;;;0.17;0.17;;;;;;;18.43;100.00;100184.31;5071545;28;20257;-72
2022/06/27 04:27:28;;;;;;;0.00;0.00;;;;;;;18.44;100.00;100188.69;5071539;28;20198;-72
2022/06/27 04:29:54;;;;;;;0.30;0.30;;;;;;;18.41;100.00;100169.25;5071181;28;20630;-72
2022/06/27 04:32:21;;;;;;;0.10;0.10;;;;;;;18.41;100.00;100166.50;5071475;28;20175;-72
2022/06/27 04:34:47;;;;;;;0.63;0.63;;;;;;;18.40;100.00;100175.97;5071532;28;20178;-72
2022/06/27 04:37:12;;;;;;;0.00;0.00;;;;;;;18.44;100.00;100163.78;5071128;28;20650;-72
2022/06/27 04:39:38;;;;;;;0.00;0.00;;;;;;;18.51;100.00;100157.53;5070929;28;20253;-72
2022/06/27 04:42:06;;;;;;;0.00;0.00;;;;;;;18.52;100.00;100152.84;5070808;28;20170;-72
2022/06/27 04:44:33;;;;;;;0.00;0.00;;;;;;;18.49;100.00;100148.03;5066249;28;20642;-71
2022/06/27 04:46:58;;;;;;;0.00;0.00;;;;;;;18.49;100.00;100142.50;5071920;28;20287;-72
2022/06/27 04:49:25;;;;;;;0.00;0.00;;;;;;;18.66;100.00;100139.22;5085724;28;20261;-72
2022/06/27 04:51:51;;;;;;;0.00;0.00;;;;;;;18.65;100.00;100135.66;5087639;28;20178;-72
2022/06/27 04:54:18;;;;;;;0.00;0.00;;;;;;;18.62;100.00;100136.38;5070940;28;20257;-72
2022/06/27 04:56:44;;;;;;;0.00;0.00;;;;;;;18.74;100.00;100149.22;5070907;28;20579;-72
2022/06/27 04:59:11;;;;;;;0.00;0.00;;;;;;;18.88;100.00;100145.88;5070720;28;20182;-72
2022/06/27 05:01:37;;;;;;;0.00;0.00;;;;;;;18.82;100.00;100141.84;5070727;28;20181;-72
2022/06/27 05:04:02;;;;;;;0.00;0.00;;;;;;;18.88;100.00;100146.66;5070946;28;20197;-72
2022/06/27 05:06:28;;;;;;;0.00;0.00;;;;;;;19.03;100.00;100159.53;5070783;28;20614;-72
2022/06/27 05:08:54;;;;;;;0.00;0.00;;;;;;;19.09;100.00;100157.22;5070611;28;20174;-72
2022/06/27 05:11:19;;;;;;;0.00;0.00;;;;;;;19.15;100.00;100155.72;5070087;28;20212;-72
2022/06/27 05:13:44;;;;;;;0.00;0.00;;;;;;;19.07;100.00;100156.78;5071020;28;20178;-73
2022/06/27 05:16:10;;;;;;;0.00;0.00;;;;;;;18.98;100.00;100151.56;5070802;28;20619;-72
2022/06/27 05:18:35;;;;;;;0.00;0.00;;;;;;;18.96;100.00;100151.13;5070307;28;20174;-72
2022/06/27 05:21:00;;;;;;;0.00;0.00;;;;;;;18.78;100.00;100149.28;5052752;28;20182;-72
2022/06/27 05:23:26;;;;;;;0.00;0.00;;;;;;;18.78;100.00;100149.28;5070745;28;20768;-72
2022/06/27 05:25:51;;;;;;;0.00;0.00;;;;;;;18.96;100.00;100151.13;5070490;28;20183;-73
2022/06/27 05:28:16;;;;;;;0.00;0.00;;;;;;;19.05;100.00;100153.59;5070194;28;20213;-75
2022/06/27 05:30:42;;;;;;;0.00;0.00;;;;;;;19.02;100.00;100149.63;5070636;28;20662;-74
2022/06/27 05:33:07;;;;;;;0.00;0.00;;;;;;;19.06;100.00;100144.13;5070740;28;20176;-73
2022/06/27 05:35:33;;;;;;;0.00;0.00;;;;;;;19.00;100.00;100160.28;5070855;28;20262;-73
2022/06/27 05:37:59;;;;;;;0.00;0.00;;;;;;;18.86;100.00;100153.75;5070192;28;20178;-71
2022/06/27 05:40:25;;;;;;;0.00;0.00;;;;;;;19.08;100.00;100152.06;5070610;28;20178;-72
2022/06/27 05:42:50;;;;;;;0.80;0.80;;;;;;;19.28;100.00;100159.84;5070770;28;20190;-73
2022/06/27 05:45:16;;;;;;;0.00;0.00;;;;;;;19.36;100.00;100152.41;5070428;28;20258;-72
2022/06/27 05:47:42;;;;;;;0.00;0.00;;;;;;;19.45;100.00;100158.47;5069770;28;20213;-72
2022/06/27 05:50:09;;;;;;;0.67;0.63;;;;;;;19.58;100.00;100164.56;5070377;28;20186;-72
2022/06/27 05:52:35;;;;;;;0.00;0.00;;;;;;;19.63;100.00;100178.09;5070456;28;20194;-72
2022/06/27 05:55:01;;;;;;;0.93;0.43;;;;;;;19.56;100.00;100192.69;5070459;28;20178;-73
2022/06/27 05:57:28;;;;;;;0.73;0.60;;;;;;;19.35;100.00;100208.19;5070169;28;20674;-72
2022/06/27 05:59:54;;;;;;;0.23;0.23;;;;;;;19.27;100.00;100208.13;5070278;28;20175;-72
2022/06/27 06:02:21;;;;;;;0.00;0.00;;;;;;;19.30;100.00;100217.66;5070585;28;20226;-73
2022/06/27 06:04:48;;;;;;;0.00;0.00;;;;;;;19.34;100.00;100224.03;5070357;28;20608;-73
2022/06/27 06:07:14;;;;;;;1.43;1.33;;;;;;;19.31;100.00;100233.09;5073758;28;20210;-71
2022/06/27 06:09:41;;;;;;;0.10;0.10;;;;;;;19.22;100.00;100227.81;5073058;28;20567;-71
2022/06/27 06:12:09;;;;;;;0.67;0.67;;;;;;;19.16;100.00;100225.75;5074324;28;20175;-72
2022/06/27 06:14:35;;;;;;;2.20;2.00;;;;;;;19.08;100.00;100222.06;5074062;28;20167;-71
2022/06/27 06:17:01;;;;;;;2.40;1.40;;;;;;;19.06;100.00;100235.50;5074127;28;20177;-71
2022/06/27 06:19:27;;;;;;;1.87;1.77;;;;;;;19.12;100.00;100233.22;5073656;28;20312;-72
2022/06/27 06:21:53;;;;;;;0.30;0.30;;;;;;;19.12;100.00;100239.56;5073858;28;20634;-78
2022/06/27 06:24:18;;;;;;;1.83;1.37;;;;;;;19.16;100.00;100245.16;5074159;28;20216;-72
2022/06/27 06:26:45;;;;;;;0.17;0.17;;;;;;;19.17;100.00;100238.44;5073209;28;20564;-72
2022/06/27 06:29:15;;;;;;;0.00;0.00;;;;;;;19.25;100.00;100242.91;5072954;28;20206;-72
2022/06/27 06:31:41;;;;;;;1.47;1.37;;;;;;;19.32;100.00;100238.25;5073688;28;20232;-72
2022/06/27 06:34:07;;;;;;;0.00;0.00;;;;;;;19.36;100.00;100229.19;5073630;28;20199;-72
2022/06/27 06:36:33;;;;;;;0.00;0.00;;;;;;;19.33;100.00;100230.75;5073452;28;20174;-72
2022/06/27 06:39:00;;;;;;;0.00;0.00;;;;;;;19.44;100.00;100225.34;5073373;28;20162;-72
2022/06/27 06:41:25;;;;;;;0.30;0.30;;;;;;;19.54;100.00;100221.91;5073867;28;20175;-72
2022/06/27 06:43:50;;;;;;;0.40;0.40;;;;;;;19.50;100.00;100210.75;5073458;28;20180;-72
2022/06/27 06:46:16;;;;;;;0.00;0.00;;;;;;;19.58;100.00;100209.72;5073452;28;20172;-71
2022/06/27 06:48:41;;;;;;;0.00;0.00;;;;;;;19.71;100.00;100204.72;5072938;28;20673;-72
2022/06/27 06:51:07;;;;;;;0.57;0.57;;;;;;;19.41;100.00;100182.56;5073447;28;20229;-73
2022/06/27 06:53:35;;;;;;;1.50;0.67;;;;;;;19.45;100.00;100188.16;5073276;28;20178;-72
2022/06/27 06:56:01;;;;;;;1.43;1.23;;;;;;;19.25;100.00;100176.44;5073228;28;20166;-72
2022/06/27 06:58:27;;;;;;;0.00;0.00;;;;;;;19.34;100.00;100171.38;5055113;28;20332;-72
2022/06/27 07:00:53;;;;;;;0.87;0.87;;;;;;;19.61;100.00;100177.66;5073275;28;20253;-75
2022/06/27 07:03:20;;;;;;;0.00;0.00;;;;;;;19.73;100.00;100191.28;5073265;28;20178;-72
2022/06/27 07:05:46;;;;;;;0.00;0.00;;;;;;;19.82;100.00;100210.38;5073188;28;20167;-71
2022/06/27 07:08:12;;;;;;;0.00;0.00;;;;;;;20.10;100.00;100230.06;5073032;28;20337;-73
2022/06/27 07:10:39;;;;;;;0.00;0.00;;;;;;;20.26;100.00;100226.28;5072609;28;20254;-72
2022/06/27 07:13:04;;;;;;;0.00;0.00;;;;;;;20.32;100.00;100233.06;5073077;28;20173;-72
2022/06/27 07:15:33;;;;;;;0.00;0.00;;;;;;;20.46;99.74;100231.25;5072899;28;20172;-73
2022/06/27 07:18:00;;;;;;;1.50;1.50;;;;;;;20.45;97.84;100234.41;5071363;28;20174;-72
2022/06/27 07:20:26;;;;;;;1.27;1.17;;;;;;;20.40;97.51;100230.00;5072823;28;20179;-72
2022/06/27 07:22:52;;;;;;;0.00;0.00;;;;;;;20.29;97.92;100225.50;5072762;28;20181;-72
2022/06/27 07:25:19;;;;;;;0.00;0.00;;;;;;;20.32;98.38;100217.22;5072872;28;20178;-73
2022/06/27 07:27:45;;;;;;;0.00;0.00;;;;;;;20.33;97.98;100213.25;5072223;28;20199;-72
2022/06/27 07:30:12;;;;;;;0.10;0.10;;;;;;;20.19;98.58;100208.38;5072909;28;20178;-73
2022/06/27 07:32:39;;;;;;;0.40;0.40;;;;;;;20.46;98.59;100219.34;5072724;28;20178;-72
2022/06/27 07:35:09;;;;;;;0.00;0.00;;;;;;;20.60;97.60;100213.13;5072806;28;20525;-73
2022/06/27 07:37:34;;;;;;;0.00;0.00;;;;;;;20.62;96.17;100200.44;5069817;28;20190;-73
2022/06/27 07:40:00;;;;;;;0.10;0.10;;;;;;;20.53;95.39;100194.41;5069788;28;20546;-72
2022/06/27 07:42:25;;;;;;;0.00;0.00;;;;;;;20.68;95.66;100196.09;5072362;28;20186;-72
2022/06/27 07:44:51;;;;;;;0.00;0.00;;;;;;;20.89;94.80;100197.47;5052306;28;20178;-72
2022/06/27 07:47:16;;;;;;;0.00;0.00;;;;;;;21.06;93.92;100194.78;5057925;28;20208;-72
2022/06/27 07:49:41;;;;;;;0.10;0.10;;;;;;;21.21;93.19;100203.19;5068945;28;20265;-72
2022/06/27 07:52:07;;;;;;;0.00;0.00;;;;;;;21.30;91.69;100204.47;5071386;28;20178;-73
2022/06/27 07:54:32;;;;;;;0.00;0.00;;;;;;;21.36;90.42;100216.00;5077810;28;20187;-72
2022/06/27 07:56:58;;;;;;;1.13;1.03;;;;;;;21.49;89.64;100220.03;5089110;28;20547;-72
2022/06/27 07:59:25;;;;;;;0.00;0.00;;;;;;;21.41;88.78;100223.97;5068050;28;20176;-72
2022/06/27 08:01:51;;;;;;;0.17;0.17;;;;;;;21.42;88.79;100228.34;5069701;28;20171;-72
2022/06/27 08:04:18;;;;;;;0.40;0.40;;;;;;;21.59;89.79;100235.97;5071559;28;20248;-72
2022/06/27 08:06:46;;;;;;;1.27;1.27;;;;;;;21.70;89.24;100230.44;5067745;28;20195;-72
2022/06/27 08:09:11;;;;;;;1.07;1.07;;;;;;;21.69;90.07;100240.75;5053110;28;20263;-72
2022/06/27 08:11:41;;;;;;;0.60;0.60;;;;;;;21.60;90.07;100242.31;5071981;28;20277;-72
2022/06/27 08:14:12;;;;;;;1.13;1.13;;;;;;;21.59;89.96;100235.16;5071701;28;20255;-72
2022/06/27 08:16:39;;;;;;;0.00;0.00;;;;;;;21.34;90.14;100226.72;5071516;28;20220;-72
2022/06/27 08:19:05;;;;;;;0.27;0.27;;;;;;;21.46;91.75;100233.91;5071048;28;20178;-74
2022/06/27 08:21:31;;;;;;;0.00;0.00;;;;;;;21.67;91.89;100245.91;5071641;28;20472;-72
2022/06/27 08:23:59;;;;;;;0.00;0.00;;;;;;;21.89;90.58;100244.00;5053143;28;20532;-73
2022/06/27 08:26:26;;;;;;;2.50;2.30;;;;;;;22.07;87.75;100246.06;5070828;28;20179;-73
2022/06/27 08:28:52;;;;;;;0.50;0.43;;;;;;;21.97;87.22;100245.59;5066761;28;20187;-72
2022/06/27 08:31:19;;;;;;;0.37;0.37;;;;;;;22.07;87.56;100251.63;5071143;28;20679;-73
2022/06/27 08:33:47;;;;;;;0.00;0.00;;;;;;;22.18;86.48;100247.69;5085991;28;20308;-72
2022/06/27 08:36:14;;;;;;;0.00;0.00;;;;;;;22.31;85.37;100255.66;5070865;28;20179;-73
2022/06/27 08:38:42;;;;;;;1.20;1.20;;;;;;;22.27;85.21;100258.41;5070053;28;20198;-73
2022/06/27 08:41:11;;;;;;;0.27;0.27;;;;;;;22.38;86.33;100253.66;5071330;28;20183;-73
2022/06/27 08:43:38;;;;;;;1.43;1.33;;;;;;;22.49;85.28;100251.69;5070772;28;20233;-73
2022/06/27 08:46:05;;;;;;;0.43;0.20;;;;;;;22.45;84.55;100250.91;5070673;28;20198;-72
2022/06/27 08:48:32;;;;;;;0.00;0.00;;;;;;;22.49;82.60;100248.13;5069986;28;20213;-72
2022/06/27 08:50:59;;;;;;;0.30;0.30;;;;;;;22.68;81.73;100242.13;5070722;28;20205;-72
2022/06/27 08:53:25;;;;;;;0.00;0.00;;;;;;;22.78;81.00;100248.91;5070763;28;20175;-73
2022/06/27 08:55:51;;;;;;;0.00;0.00;;;;;;;22.59;80.80;100247.34;5070481;28;20202;-73
2022/06/27 08:58:17;;;;;;;0.83;0.80;;;;;;;22.70;80.35;100250.09;5069902;28;20209;-72
2022/06/27 09:00:47;;;;;;;0.00;0.00;;;;;;;22.71;77.93;100248.91;5070531;28;20265;-73
2022/06/27 09:03:17;;;;;;;0.10;0.10;;;;;;;22.83;77.70;100251.31;5070646;28;20174;-73
2022/06/27 09:05:44;;;;;;;0.93;0.93;;;;;;;22.97;78.64;100247.72;5070422;28;20681;-72
2022/06/27 09:08:10;;;;;;;0.00;0.00;;;;;;;23.10;79.27;100263.63;5068806;28;20202;-73
2022/06/27 09:10:43;;;;;;;0.00;0.00;;;;;;;23.16;77.81;100269.59;5070372;28;20482;-73
2022/06/27 09:13:11;;;;;;;0.00;0.00;;;;;;;23.33;75.77;100267.97;5070615;28;20573;-73
2022/06/27 09:15:39;;;;;;;0.23;0.23;;;;;;;23.32;74.91;100271.97;5070315;28;20531;-73
2022/06/27 09:18:07;;;;;;;0.00;0.00;;;;;;;23.52;75.19;100277.88;5069175;28;20291;-73
2022/06/27 09:20:54;;;;;;;0.50;0.50;;;;;;;23.58;74.01;100260.34;5069004;28;20171;-73
2022/06/27 09:23:32;;;;;;;0.70;0.70;;;;;;;23.57;74.38;100252.34;5068667;28;20193;-73
2022/06/27 09:25:59;;;;;;;0.00;0.00;;;;;;;23.43;75.27;100270.75;5069008;28;20176;-74
2022/06/27 09:28:40;;;;;;;0.20;0.20;;;;;;;23.39;75.63;100267.13;5067953;28;20198;-73
2022/06/27 09:31:30;;;;;;;0.00;0.00;;;;;;;23.41;75.28;100266.75;5068874;28;20224;-74
2022/06/27 09:34:25;;;;;;;0.90;0.90;;;;;;;23.67;74.86;100260.69;5057080;28;20666;-74
2022/06/27 09:37:03;;;;;;;1.27;1.17;;;;;;;23.74;74.46;100254.31;5069950;28;20186;-73
2022/06/27 09:39:36;;;;;;;0.47;0.47;;;;;;;23.80;73.67;100260.25;5070006;28;20167;-74
2022/06/27 09:42:03;;;;;;;1.13;1.13;;;;;;;23.69;73.58;100247.13;5073558;28;20178;-74
2022/06/27 09:44:30;;;;;;;0.00;0.00;;;;;;;23.97;74.03;100256.56;5074209;28;20251;-73
2022/06/27 09:47:09;;;;;;;0.50;0.50;;;;;;;23.73;72.93;100256.31;5073585;28;20577;-73
2022/06/27 09:49:37;;;;;;;0.00;0.00;;;;;;;24.06;73.05;100259.72;5073724;28;20178;-73
2022/06/27 09:52:05;;;;;;;0.67;0.67;;;;;;;23.93;72.60;100278.13;5072087;28;20183;-74
2022/06/27 09:54:33;;;;;;;0.40;0.40;;;;;;;23.84;71.62;100284.13;5072467;28;20671;-72
2022/06/27 09:56:59;;;;;;;0.00;0.00;;;;;;;23.90;72.20;100276.94;5074448;28;20181;-73
2022/06/27 09:59:25;;;;;;;0.00;0.00;;;;;;;24.06;71.17;100272.88;5073225;28;20270;-73
2022/06/27 10:01:53;;;;;;;0.20;0.20;;;;;;;24.21;71.68;100261.22;5074397;28;20698;-73
2022/06/27 10:04:20;;;;;;;0.40;0.40;;;;;;;24.47;71.32;100270.25;5073923;28;20200;-73
2022/06/27 10:06:45;;;;;;;0.00;0.00;;;;;;;24.69;70.10;100268.09;5073473;28;20174;-73
2022/06/27 10:09:12;;;;;;;1.00;1.00;;;;;;;24.86;71.23;100267.13;5072591;28;20185;-72
2022/06/27 10:11:38;;;;;;;6.30;0.33;;;;;;;25.04;68.52;100264.22;5051686;28;20183;-73
2022/06/27 10:14:21;;;;;;;0.20;0.20;;;;;;;25.13;67.25;100258.91;5072057;28;20182;-73
2022/06/27 10:16:57;;;;;;;0.00;0.00;;;;;;;25.32;68.81;100266.72;5072182;28;20182;-73
2022/06/27 10:19:28;;;;;;;0.00;0.00;;;;;;;24.88;68.12;100251.56;5073566;28;20224;-73
2022/06/27 10:21:55;;;;;;;0.73;0.73;;;;;;;25.04;68.47;100245.44;5073558;28;20171;-73
2022/06/27 10:24:21;;;;;;;0.00;0.00;;;;;;;25.19;68.49;100249.69;5073571;28;20202;-73
2022/06/27 10:26:52;;;;;;;0.00;0.00;;;;;;;25.44;67.65;100251.38;5068702;28;20202;-73
2022/06/27 10:29:37;;;;;;;0.27;0.27;;;;;;;25.34;67.41;100247.50;5071264;28;20178;-73
2022/06/27 10:32:05;;;;;;;0.20;0.20;;;;;;;25.28;67.63;100249.16;5075677;28;20183;-73
2022/06/27 10:34:39;;;;;;;0.60;0.60;;;;;;;25.27;67.87;100244.78;5087420;28;20174;-73
2022/06/27 10:37:26;;;;;;;0.33;0.33;;;;;;;24.90;68.28;100248.34;5073504;28;20699;-73
2022/06/27 10:40:14;;;;;;;0.27;0.27;;;;;;;24.72;68.74;100244.91;5073538;28;20662;-76
2022/06/27 10:42:54;;;;;;;0.00;0.00;;;;;;;24.63;70.47;100242.59;5073655;28;20231;-73
2022/06/27 10:45:19;;;;;;;0.10;0.10;;;;;;;24.71;69.60;100251.69;5073403;28;20695;-74
2022/06/27 10:47:45;;;;;;;0.23;0.23;;;;;;;24.93;69.73;100261.50;5072425;28;20214;-73
2022/06/27 10:50:12;;;;;;;0.00;0.00;;;;;;;25.11;69.52;100258.53;5073325;28;20471;-73
2022/06/27 10:52:38;;;;;;;0.30;0.30;;;;;;;25.23;68.83;100252.44;5073028;28;20210;-74
2022/06/27 10:55:23;;;;;;;0.30;0.30;;;;;;;25.34;68.47;100255.13;5055443;28;20225;-73
2022/06/27 10:57:52;;;;;;;0.87;0.87;;;;;;;25.21;68.29;100260.44;5053241;28;20237;-73
2022/06/27 11:00:36;;;;;;;0.57;0.57;;;;;;;25.11;69.60;100248.16;5053362;28;20179;-73
2022/06/27 11:03:01;;;;;;;0.60;0.60;;;;;;;25.21;69.60;100252.06;5053197;28;20179;-74
2022/06/27 11:05:49;;;;;;;0.83;0.83;;;;;;;25.21;69.75;100246.47;5053110;28;20627;-73
2022/06/27 11:08:15;;;;;;;2.10;2.00;;;;;;;25.38;69.45;100250.25;5052485;28;20206;-74
2022/06/27 11:10:42;;;;;;;0.20;0.20;;;;;;;25.56;67.16;100245.25;5053134;28;20232;-73
2022/06/27 11:13:08;;;;;;;1.90;1.80;;;;;;;25.67;67.87;100243.13;5053067;28;20176;-74
2022/06/27 11:15:33;;;;;;;0.30;0.30;;;;;;;25.76;66.46;100237.03;5052782;28;20180;-73
2022/06/27 11:18:06;;;;;;;0.10;0.10;;;;;;;25.75;66.03;100229.84;5067733;28;20183;-74
2022/06/27 11:20:32;;;;;;;0.33;0.33;;;;;;;25.89;65.61;100235.25;5072647;28;20189;-74
2022/06/27 11:22:59;;;;;;;0.10;0.00;;;;;;;25.63;66.13;100235.97;5072781;28;20178;-73
2022/06/27 11:25:29;;;;;;;0.00;0.00;;;;;;;25.49;66.29;100240.53;5072678;28;20186;-73